Ship Status Report: callsign MVGF4

sailwx.info

Track history (hours):
 
Tides and Currents Weather Stations Pressure Air Temp Water Temp Dewpoint Dewpoint Depression Visibility Wind Speed Wind Dir Waves Ship Positions

Callsign MVGF4 (name unknown)

Last reported at 2018-Jul-22 09:00 UTC. Time now 2018-Jul-22 10:38 UTC.
Position N 58°18' W 001°42'.

Wind from 260

Air temperature 15.9 ° C
Visibility: greater than 10.8 NM

Date/timePositionNaut miles runAvg speedWind from/ knotsBaromVisibWave heightAir tempDewpointWater temp
2018-Jul-22 09:00N 58°18' W 001°42'0 0.0 260 10.8 15.9
2018-Jul-22 08:00N 58°18' W 001°42'0 0.0 250 10.8 16.0
2018-Jul-22 07:00N 58°18' W 001°42'0 0.0 250 10.8 15.8
2018-Jul-22 06:00N 58°18' W 001°42'0 0.0 240 10.8 15.4
2018-Jul-22 05:00N 58°18' W 001°42'0 0.0 240 10.8 15.1
2018-Jul-22 04:00N 58°18' W 001°42'0 0.0 220 10.8 14.9
2018-Jul-22 03:00N 58°18' W 001°42'0 0.0 220 10.8 15.0
2018-Jul-22 02:00N 58°18' W 001°42'0 0.0 210 10.8 14.8
2018-Jul-22 01:00N 58°18' W 001°42'0 0.0 190 10.8 14.8
2018-Jul-22 00:00N 58°18' W 001°42'0 0.0 160 10.8 14.5
2018-Jul-21 23:00N 58°18' W 001°42'0 0.0 220 10.8 14.6
2018-Jul-21 22:00N 58°18' W 001°42'0 0.0 210 2.2 14.8
2018-Jul-21 21:00N 58°18' W 001°42'0 0.0 160 5.4 14.6
2018-Jul-21 20:00N 58°18' W 001°42'0 0.0 150 10.8 14.7
2018-Jul-21 19:00N 58°18' W 001°42'0 0.0 160 10.8 15.3
2018-Jul-21 18:00N 58°18' W 001°42'0 0.0 160 10.8 17.0
2018-Jul-21 17:00N 58°18' W 001°42'0 0.0 160 10.8 18.2
2018-Jul-21 16:00N 58°18' W 001°42'0 0.0 150 10.8 19.8
2018-Jul-21 15:00N 58°18' W 001°42'0 0.0 180 10.8 18.5
2018-Jul-21 14:00N 58°18' W 001°42'0 0.0 200 10.8 17.6
2018-Jul-21 13:00N 58°18' W 001°42'0 0.0 240 10.8 15.2
2018-Jul-21 12:00N 58°18' W 001°42'0 0.0 290 10.8 13.8
2018-Jul-21 11:00N 58°18' W 001°42'0 0.0 270 10.8 13.3
2018-Jul-21 10:00N 58°18' W 001°42'0 0.0 240 10.8 13.0
2018-Jul-21 09:00N 58°18' W 001°42'0 0.0 240 10.8 13.3
2018-Jul-21 08:00N 58°18' W 001°42'0 0.0 250 10.8 12.8
2018-Jul-21 07:00N 58°18' W 001°42'0 0.0 280 10.8 12.7
2018-Jul-21 06:00N 58°18' W 001°42'0 0.0 300 10.8 12.6
2018-Jul-21 05:00N 58°18' W 001°42'0 0.0 320 10.8 12.6
2018-Jul-21 04:00N 58°18' W 001°42'0 0.0 310 10.8 12.8
2018-Jul-21 03:00N 58°18' W 001°42'0 0.0 330 10.8 13.0
2018-Jul-21 02:00N 58°18' W 001°42'0 0.0 340 10.8 13.0
2018-Jul-21 01:00N 58°18' W 001°42'0 0.0 340 10.8 12.8
2018-Jul-21 00:00N 58°18' W 001°42'0 0.0 330 10.8 12.8
2018-Jul-20 23:00N 58°18' W 001°42'0 0.0 330 10.8 12.9
2018-Jul-20 22:00N 58°18' W 001°42'0 0.0 330 10.8 13.7
2018-Jul-20 21:00N 58°18' W 001°42'0 0.0 320 10.8 14.3
2018-Jul-20 20:00N 58°18' W 001°42'0 0.0 260 10.8 14.5
2018-Jul-20 19:00N 58°18' W 001°42'0 0.0 240 10.8 14.8
2018-Jul-20 18:00N 58°18' W 001°42'0 0.0 260 10.8 15.5
2018-Jul-20 17:00N 58°18' W 001°42'0 0.0 210 10.8 16.9
2018-Jul-20 16:00N 58°18' W 001°42'0 0.0 210 10.8 17.5
2018-Jul-20 15:00N 58°18' W 001°42'0 0.0 200 10.8 16.3
2018-Jul-20 14:00N 58°18' W 001°42'0 0.0 190 5.4 16.2
2018-Jul-20 13:00N 58°18' W 001°42'0 0.0 180 10.8 15.5
2018-Jul-20 12:00N 58°18' W 001°42'0 0.0 190 10.8 15.4
2018-Jul-20 11:00N 58°18' W 001°42'0 0.0 200 10.8 14.6
2018-Jul-20 10:00N 58°18' W 001°42'0 0.0 220 10.8 14.1
2018-Jul-20 09:00N 58°18' W 001°42'0 0.0 230 10.8 14.1
2018-Jul-20 08:00N 58°18' W 001°42'0 0.0 230 10.8 13.8
2018-Jul-20 07:00N 58°18' W 001°42'0 0.0 220 10.8 14.3
2018-Jul-20 06:00N 58°18' W 001°42'0 0.0 220 10.8 14.1
2018-Jul-20 05:00N 58°18' W 001°42'0 0.0 210 10.8 14.1
2018-Jul-20 04:00N 58°18' W 001°42'0 0.0 230 10.8 13.9
2018-Jul-20 03:00N 58°18' W 001°42'0 0.0 230 10.8 14.0
2018-Jul-20 02:00N 58°18' W 001°42'0 0.0 230 10.8 14.6
2018-Jul-20 01:00N 58°18' W 001°42'0 0.0 230 10.8 15.0
2018-Jul-20 00:00N 58°18' W 001°42'0 0.0 230 10.8 14.9
2018-Jul-19 23:00N 58°18' W 001°42'0 0.0 210 5.4 15.1
2018-Jul-19 22:00N 58°18' W 001°42'0 0.0 190 5.4 15.5
2018-Jul-19 21:00N 58°18' W 001°42'0 0.0 150 10.8 16.9
2018-Jul-19 20:00N 58°18' W 001°42'0 0.0 140 5.4 18.4
2018-Jul-19 19:00N 58°18' W 001°42'0 0.0 160 5.4 18.7
2018-Jul-19 18:00N 58°18' W 001°42'0 0.0 130 10.8 20.1
2018-Jul-19 17:00N 58°18' W 001°42'0 0.0 140 10.8 20.5
2018-Jul-19 16:00N 58°18' W 001°42'0 0.0 130 10.8 22.1
2018-Jul-19 15:00N 58°18' W 001°42'0 0.0 140 10.8 23.1
2018-Jul-19 14:00N 58°18' W 001°42'0 0.0 150 10.8 20.3
2018-Jul-19 13:00N 58°18' W 001°42'0 0.0 180 10.8 20.4
2018-Jul-19 12:00N 58°18' W 001°42'0 0.0 210 10.8 18.9
2018-Jul-19 11:00N 58°18' W 001°42'0 0.0 200 10.8 18.7
2018-Jul-19 10:00N 58°18' W 001°42'0 0.0 210 5.4 17.8
2018-Jul-19 09:00N 58°18' W 001°42'0 0.0 200 10.8 17.5
2018-Jul-19 08:00N 58°18' W 001°42'0 0.0 170 10.8 16.8
2018-Jul-19 07:00N 58°18' W 001°42'0 0.0 150 10.8 16.5
2018-Jul-19 06:00N 58°18' W 001°42'0 0.0 130 10.8 15.6
2018-Jul-19 05:00N 58°18' W 001°42'0 0.0 140 10.8 15.2
2018-Jul-19 04:00N 58°18' W 001°42'0 0.0 130 10.8 15.0
2018-Jul-19 03:00N 58°18' W 001°42'0 0.0 130 10.8 15.0
2018-Jul-19 02:00N 58°18' W 001°42'0 0.0 130 10.8 14.8
2018-Jul-19 01:00N 58°18' W 001°42'0 0.0 110 10.8 14.5
2018-Jul-19 00:00N 58°18' W 001°42'0 0.0 140 10.8 14.2
2018-Jul-18 23:00N 58°18' W 001°42'0 0.0 120 10.8 14.3
2018-Jul-18 22:00N 58°18' W 001°42'0 0.0 110 10.8 14.7
2018-Jul-18 21:00N 58°18' W 001°42'0 0.0 330 10.8 15.2
2018-Jul-18 20:00N 58°18' W 001°42'0 0.0 220 10.8 16.6
2018-Jul-18 19:00N 58°18' W 001°42'0 0.0 210 10.8 19.4
2018-Jul-18 18:00N 58°18' W 001°42'0 0.0 200 10.8 20.0
2018-Jul-18 17:00N 58°18' W 001°42'0 0.0 200 10.8 20.7
2018-Jul-18 16:00N 58°18' W 001°42'0 0.0 300 10.8 18.2
2018-Jul-18 15:00N 58°18' W 001°42'0 0.0 270 10.8 15.9
2018-Jul-18 14:00N 58°18' W 001°42'0 0.0 270 10.8 15.2
2018-Jul-18 13:00N 58°18' W 001°42'0 0.0 230 10.8 15.7
2018-Jul-18 12:00N 58°18' W 001°42'0 0.0 240 10.8 15.6
2018-Jul-18 11:00N 58°18' W 001°42'0 0.0 270 10.8 15.3
2018-Jul-18 10:00N 58°18' W 001°42'0 0.0 230 5.4 14.5
2018-Jul-18 09:00N 58°18' W 001°42'0 0.0 260 10.8 13.8
2018-Jul-18 08:00N 58°18' W 001°42'0 0.0 240 10.8 13.5
2018-Jul-18 07:00N 58°18' W 001°42'0 0.0 220 10.8 13.1
2018-Jul-18 06:00N 58°18' W 001°42'0 0.0 270 10.8 13.1
2018-Jul-18 05:00N 58°18' W 001°42'0 0.0 340 10.8 12.8
2018-Jul-18 04:00N 58°18' W 001°42'0 0.0 350 10.8 12.7
2018-Jul-18 03:00N 58°18' W 001°42'0 0.0 340 10.8 12.8
2018-Jul-18 02:00N 58°18' W 001°42'0 0.0 340 10.8 13.0
2018-Jul-18 01:00N 58°18' W 001°42'0 0.0 300 2.2 13.9
2018-Jul-18 00:00N 58°18' W 001°42'0 0.0 180 10.8 14.1
2018-Jul-17 23:00N 58°18' W 001°42'0 0.0 030 5.4 14.7
2018-Jul-17 22:00N 58°18' W 001°42'0 0.0 020 10.8 15.0
2018-Jul-17 21:00N 58°18' W 001°42'0 0.0 250 10.8 14.7
2018-Jul-17 20:00N 58°18' W 001°42'0 0.0 220 10.8 14.6
2018-Jul-17 19:00N 58°18' W 001°42'0 0.0 250 10.8 15.0
2018-Jul-17 18:00N 58°18' W 001°42'0 0.0 240 10.8 15.1
2018-Jul-17 17:00N 58°18' W 001°42'0 0.0 240 10.8 15.4
2018-Jul-17 16:00N 58°18' W 001°42'0 0.0 230 10.8 16.1
2018-Jul-17 15:00N 58°18' W 001°42'0 0.0 200 10.8 15.6
2018-Jul-17 14:00N 58°18' W 001°42'0 0.0 230 10.8 17.0
2018-Jul-17 13:00N 58°18' W 001°42'0 0.0 230 10.8 16.3
2018-Jul-17 12:00N 58°18' W 001°42'0 0.0 230 10.8 15.2
2018-Jul-17 11:00N 58°18' W 001°42'0 0.0 250 10.8 14.4
2018-Jul-17 10:00N 58°18' W 001°42'0 0.0 240 10.8 14.0
2018-Jul-17 09:00N 58°18' W 001°42'0 0.0 290 5.4 14.1
2018-Jul-17 08:00N 58°18' W 001°42'0 0.0 190 2.2 14.0
2018-Jul-17 07:00N 58°18' W 001°42'0 0.0 260 10.8 14.2
2018-Jul-17 06:00N 58°18' W 001°42'0 0.0 250 10.8 14.0
2018-Jul-17 05:00N 58°18' W 001°42'0 0.0 250 10.8 14.0
2018-Jul-17 04:00N 58°18' W 001°42'0 0.0 250 10.8 13.8
2018-Jul-17 03:00N 58°18' W 001°42'0 0.0 230 5.4 14.1
2018-Jul-17 02:00N 58°18' W 001°42'0 0.0 130 10.8 14.1
2018-Jul-17 01:00N 58°18' W 001°42'0 0.0 200 10.8 14.0
2018-Jul-17 00:00N 58°18' W 001°42'0 0.0 080 10.8 14.0
2018-Jul-16 23:00N 58°18' W 001°42'0 0.0 060 10.8 14.2
2018-Jul-16 22:00N 58°18' W 001°42'0 0.0 020 10.8 14.3
2018-Jul-16 21:00N 58°18' W 001°42'0 0.0 070 5.4 14.2
2018-Jul-16 19:00N 58°18' W 001°42'0 0.0 060 10.8 14.2
2018-Jul-16 18:00N 58°18' W 001°42'0 0.0 050 5.4 14.1
2018-Jul-16 17:00N 58°18' W 001°42'0 0.0
2018-Jul-16 16:00N 58°18' W 001°42'0 0.0
2018-Jul-16 15:00N 58°18' W 001°42'0 0.0
2018-Jul-16 14:00N 58°18' W 001°42'0 0.0
2018-Jul-16 13:00N 58°18' W 001°42'0 0.0
2018-Jul-16 12:00N 58°18' W 001°42'0 0.0
2018-Jul-16 11:00N 58°18' W 001°42'0 0.0
2018-Jul-16 10:00N 58°18' W 001°42'0 0.0
2018-Jul-16 09:00N 58°18' W 001°42'0 0.0
2018-Jul-16 08:00N 58°18' W 001°42'0 0.0 200 2.2 15.4
2018-Jul-16 07:00N 58°18' W 001°42'0 0.0 200 5.4 15.2
2018-Jul-16 06:00N 58°18' W 001°42'0 0.0 190 5.4 15.1
2018-Jul-16 05:00N 58°18' W 001°42'0 0.0 180 5.4 15.0
2018-Jul-16 04:00N 58°18' W 001°42'0 0.0 180 5.4 14.8
2018-Jul-16 03:00N 58°18' W 001°42'0 0.0 180 5.4 15.2
2018-Jul-16 02:00N 58°18' W 001°42'0 0.0 180 5.4 15.3
2018-Jul-16 01:00N 58°18' W 001°42'0 0.0 170 5.4 15.5
2018-Jul-16 00:00N 58°18' W 001°42'0 0.0 160 5.4 15.3
2018-Jul-15 23:00N 58°18' W 001°42'0 0.0 170 10.8 16.2
2018-Jul-15 22:00N 58°18' W 001°42'0 0.0 180 10.8 16.3
2018-Jul-15 21:00N 58°18' W 001°42'0 0.0 200 5.4 15.5
2018-Jul-15 20:00N 58°18' W 001°42'0 0.0 190 5.4 15.6
2018-Jul-15 19:00N 58°18' W 001°42'0 0.0 190 5.4 15.7
2018-Jul-15 18:00N 58°18' W 001°42'0 0.0 220 5.4 17.6
2018-Jul-15 17:00N 58°18' W 001°42'0 0.0 160 5.4 17.2
2018-Jul-15 16:00N 58°18' W 001°42'0 0.0 130 5.4 18.7
2018-Jul-15 15:00N 58°18' W 001°42'0 0.0 110 10.8 21.5
2018-Jul-15 14:00N 58°18' W 001°42'0 0.0 130 10.8 19.0
2018-Jul-15 13:00N 58°18' W 001°42'0 0.0 150 5.4 20.0
2018-Jul-15 12:00N 58°18' W 001°42'0 0.0 140 10.8 16.6
2018-Jul-15 11:00N 58°18' W 001°42'0 0.0 140 10.8 17.2
2018-Jul-15 10:00N 58°18' W 001°42'0 0.0 160 10.8 18.3
2018-Jul-15 09:00N 58°18' W 001°42'0 0.0 170 10.8 17.2
2018-Jul-15 08:00N 58°18' W 001°42'0 0.0 140 10.8 17.7
2018-Jul-15 07:00N 58°18' W 001°42'0 0.0 190 10.8 18.5
2018-Jul-15 06:00N 58°18' W 001°42'0 0.0 180 10.8 17.3
2018-Jul-15 05:00N 58°18' W 001°42'0 0.0 170 10.8 17.0
2018-Jul-15 04:00N 58°18' W 001°42'0 0.0 150 10.8 17.5
2018-Jul-15 03:00N 58°18' W 001°42'0 0.0 140 10.8 16.9
2018-Jul-15 02:00N 58°18' W 001°42'0 0.0 140 10.8 18.0
2018-Jul-15 01:00N 58°18' W 001°42'0 0.0 140 10.8 17.7
2018-Jul-15 00:00N 58°18' W 001°42'0 0.0 150 10.8 17.7
2018-Jul-14 23:00N 58°18' W 001°42'0 0.0 180 10.8 17.2
2018-Jul-14 22:00N 58°18' W 001°42'0 0.0 140 10.8 16.9
2018-Jul-14 21:00N 58°18' W 001°42'0 0.0 160 10.8
2018-Jul-14 20:00N 58°18' W 001°42'0 0.0 5.4 15.2
2018-Jul-14 19:00N 58°18' W 001°42'0 0.0 110 5.4 15.3
2018-Jul-14 18:00N 58°18' W 001°42'0 0.0 130 5.4 15.0
2018-Jul-14 17:00N 58°18' W 001°42'0 0.0 210 5.4 15.3
2018-Jul-14 16:00N 58°18' W 001°42'0 0.0 160 10.8 15.4
2018-Jul-14 15:00N 58°18' W 001°42'0 0.0 140 10.8 16.0
2018-Jul-14 14:00N 58°18' W 001°42'0 0.0 160 10.8 16.0
2018-Jul-14 13:00N 58°18' W 001°42'0 0.0 170 10.8 16.3
2018-Jul-14 12:00N 58°18' W 001°42'0 0.0 170 10.8 15.8
2018-Jul-14 11:00N 58°18' W 001°42'0 0.0 200 10.8 16.6
2018-Jul-14 10:00N 58°18' W 001°42'0 0.0 200 10.8 16.7
2018-Jul-14 09:00N 58°18' W 001°42'0 0.0 220 10.8 16.0
2018-Jul-14 08:00N 58°18' W 001°42'0 0.0 220 10.8 15.5
2018-Jul-14 07:00N 58°18' W 001°42'0 0.0 220 10.8 15.8
2018-Jul-14 06:00N 58°18' W 001°42'0 0.0 240 10.8 14.6
2018-Jul-14 05:00N 58°18' W 001°42'0 0.0 240 10.8 14.7
2018-Jul-14 04:00N 58°18' W 001°42'0 0.0 5.4
2018-Jul-14 03:00N 58°18' W 001°42'0 0.0 230 10.8 14.6
2018-Jul-14 02:00N 58°18' W 001°42'0 0.0 220 5.4 14.1
2018-Jul-14 01:00N 58°18' W 001°42'0 0.0 200 5.4 14.1
2018-Jul-14 00:00N 58°18' W 001°42'0 0.0 190 5.4 14.2
2018-Jul-13 23:00N 58°18' W 001°42'0 0.0 190 5.4 14.4
2018-Jul-13 22:00N 58°18' W 001°42'0 0.0 170 10.8 14.6
2018-Jul-13 21:00N 58°18' W 001°42'0 0.0 170 10.8 14.6
2018-Jul-13 20:00N 58°18' W 001°42'0 0.0 170 10.8 14.7
2018-Jul-13 19:00N 58°18' W 001°42'0 0.0 180 10.8 14.8
2018-Jul-13 18:00N 58°18' W 001°42'0 0.0 170 10.8 14.9
2018-Jul-13 17:00N 58°18' W 001°42'0 0.0 160 10.8 15.0
2018-Jul-13 16:00N 58°18' W 001°42'0 0.0 150 10.8 15.2
2018-Jul-13 15:00N 58°18' W 001°42'0 0.0 160 10.8 15.0
2018-Jul-13 14:00N 58°18' W 001°42'0 0.0 140 10.8 15.2
2018-Jul-13 13:00N 58°18' W 001°42'0 0.0 140 10.8 15.3
2018-Jul-13 12:00N 58°18' W 001°42'0 0.0 140 10.8 15.6
2018-Jul-13 11:00N 58°18' W 001°42'0 0.0 170 10.8 15.6
2018-Jul-13 10:00N 58°18' W 001°42'0 0.0 140 10.8 15.6
2018-Jul-13 09:00N 58°18' W 001°42'0 0.0 160 10.8 15.2
2018-Jul-13 08:00N 58°18' W 001°42'0 0.0 200 10.8 14.8
2018-Jul-13 07:00N 58°18' W 001°42'0 0.0 210 10.8 15.0
2018-Jul-13 06:00N 58°18' W 001°42'0 0.0 220 10.8 15.1
2018-Jul-13 05:00N 58°18' W 001°42'0 0.0 240 10.8 13.6
2018-Jul-13 04:00N 58°18' W 001°42'0 0.0 260 10.8 12.3
2018-Jul-13 03:00N 58°18' W 001°42'0 0.0 270 10.8 12.3
2018-Jul-13 02:00N 58°18' W 001°42'0 0.0 300 10.8 12.6
2018-Jul-13 01:00N 58°18' W 001°42'0 0.0 310 10.8 12.5
2018-Jul-13 00:00N 58°18' W 001°42'0 0.0 280 10.8 12.8
2018-Jul-12 23:00N 58°18' W 001°42'0 0.0 300 10.8 12.9
2018-Jul-12 22:00N 58°18' W 001°42'0 0.0 010 10.8 12.9
2018-Jul-12 21:00N 58°18' W 001°42'0 0.0 310 10.8 13.0
2018-Jul-12 20:00N 58°18' W 001°42'0 0.0 360 10.8 13.1
2018-Jul-12 19:00N 58°18' W 001°42'0 0.0 310 10.8 13.1
2018-Jul-12 18:00N 58°18' W 001°42'0 0.0 340 10.8 13.3
2018-Jul-12 17:00N 58°18' W 001°42'0 0.0 340 10.8 13.3
2018-Jul-12 16:00N 58°18' W 001°42'0 0.0 350 10.8 13.4
2018-Jul-12 15:00N 58°18' W 001°42'0 0.0 320 10.8 13.3
2018-Jul-12 14:00N 58°18' W 001°42'0 0.0 330 10.8 13.2
2018-Jul-12 13:00N 58°18' W 001°42'0 0.0 340 10.8 12.8
2018-Jul-12 12:00N 58°18' W 001°42'0 0.0 350 10.8 12.7
2018-Jul-12 11:00N 58°18' W 001°42'0 0.0 360 10.8 12.7
2018-Jul-12 10:00N 58°18' W 001°42'0 0.0 340 10.8 12.8
2018-Jul-12 09:00N 58°18' W 001°42'   330 10.8 12.7
Track history (hours):
 
Tides and Currents Weather Stations Pressure Air Temp Water Temp Dewpoint Dewpoint Depression Visibility Wind Speed Wind Dir Waves Ship Positions

Callsign MVGF4 (name unknown)

Last reported at 2018-Jul-22 09:00 UTC. Time now 2018-Jul-22 10:38 UTC.
Position N 58°18' W 001°42'.

Wind from 260

Air temperature 15.9 ° C
Visibility: greater than 10.8 NM

Date/timePositionNaut miles runAvg speedWind from/ knotsBaromVisibWave heightAir tempDewpointWater temp
2018-Jul-22 09:00N 58°18' W 001°42'0 0.0 260 10.8 15.9
2018-Jul-22 08:00N 58°18' W 001°42'0 0.0 250 10.8 16.0
2018-Jul-22 07:00N 58°18' W 001°42'0 0.0 250 10.8 15.8
2018-Jul-22 06:00N 58°18' W 001°42'0 0.0 240 10.8 15.4
2018-Jul-22 05:00N 58°18' W 001°42'0 0.0 240 10.8 15.1
2018-Jul-22 04:00N 58°18' W 001°42'0 0.0 220 10.8 14.9
2018-Jul-22 03:00N 58°18' W 001°42'0 0.0 220 10.8 15.0
2018-Jul-22 02:00N 58°18' W 001°42'0 0.0 210 10.8 14.8
2018-Jul-22 01:00N 58°18' W 001°42'0 0.0 190 10.8 14.8
2018-Jul-22 00:00N 58°18' W 001°42'0 0.0 160 10.8 14.5
2018-Jul-21 23:00N 58°18' W 001°42'0 0.0 220 10.8 14.6
2018-Jul-21 22:00N 58°18' W 001°42'0 0.0 210 2.2 14.8
2018-Jul-21 21:00N 58°18' W 001°42'0 0.0 160 5.4 14.6
2018-Jul-21 20:00N 58°18' W 001°42'0 0.0 150 10.8 14.7
2018-Jul-21 19:00N 58°18' W 001°42'0 0.0 160 10.8 15.3
2018-Jul-21 18:00N 58°18' W 001°42'0 0.0 160 10.8 17.0
2018-Jul-21 17:00N 58°18' W 001°42'0 0.0 160 10.8 18.2
2018-Jul-21 16:00N 58°18' W 001°42'0 0.0 150 10.8 19.8
2018-Jul-21 15:00N 58°18' W 001°42'0 0.0 180 10.8 18.5
2018-Jul-21 14:00N 58°18' W 001°42'0 0.0 200 10.8 17.6
2018-Jul-21 13:00N 58°18' W 001°42'0 0.0 240 10.8 15.2
2018-Jul-21 12:00N 58°18' W 001°42'0 0.0 290 10.8 13.8
2018-Jul-21 11:00N 58°18' W 001°42'0 0.0 270 10.8 13.3
2018-Jul-21 10:00N 58°18' W 001°42'0 0.0 240 10.8 13.0
2018-Jul-21 09:00N 58°18' W 001°42'0 0.0 240 10.8 13.3
2018-Jul-21 08:00N 58°18' W 001°42'0 0.0 250 10.8 12.8
2018-Jul-21 07:00N 58°18' W 001°42'0 0.0 280 10.8 12.7
2018-Jul-21 06:00N 58°18' W 001°42'0 0.0 300 10.8 12.6
2018-Jul-21 05:00N 58°18' W 001°42'0 0.0 320 10.8 12.6
2018-Jul-21 04:00N 58°18' W 001°42'0 0.0 310 10.8 12.8
2018-Jul-21 03:00N 58°18' W 001°42'0 0.0 330 10.8 13.0
2018-Jul-21 02:00N 58°18' W 001°42'0 0.0 340 10.8 13.0
2018-Jul-21 01:00N 58°18' W 001°42'0 0.0 340 10.8 12.8
2018-Jul-21 00:00N 58°18' W 001°42'0 0.0 330 10.8 12.8
2018-Jul-20 23:00N 58°18' W 001°42'0 0.0 330 10.8 12.9
2018-Jul-20 22:00N 58°18' W 001°42'0 0.0 330 10.8 13.7
2018-Jul-20 21:00N 58°18' W 001°42'0 0.0 320 10.8 14.3
2018-Jul-20 20:00N 58°18' W 001°42'0 0.0 260 10.8 14.5
2018-Jul-20 19:00N 58°18' W 001°42'0 0.0 240 10.8 14.8
2018-Jul-20 18:00N 58°18' W 001°42'0 0.0 260 10.8 15.5
2018-Jul-20 17:00N 58°18' W 001°42'0 0.0 210 10.8 16.9
2018-Jul-20 16:00N 58°18' W 001°42'0 0.0 210 10.8 17.5
2018-Jul-20 15:00N 58°18' W 001°42'0 0.0 200 10.8 16.3
2018-Jul-20 14:00N 58°18' W 001°42'0 0.0 190 5.4 16.2
2018-Jul-20 13:00N 58°18' W 001°42'0 0.0 180 10.8 15.5
2018-Jul-20 12:00N 58°18' W 001°42'0 0.0 190 10.8 15.4
2018-Jul-20 11:00N 58°18' W 001°42'0 0.0 200 10.8 14.6
2018-Jul-20 10:00N 58°18' W 001°42'0 0.0 220 10.8 14.1
2018-Jul-20 09:00N 58°18' W 001°42'0 0.0 230 10.8 14.1
2018-Jul-20 08:00N 58°18' W 001°42'0 0.0 230 10.8 13.8
2018-Jul-20 07:00N 58°18' W 001°42'0 0.0 220 10.8 14.3
2018-Jul-20 06:00N 58°18' W 001°42'0 0.0 220 10.8 14.1
2018-Jul-20 05:00N 58°18' W 001°42'0 0.0 210 10.8 14.1
2018-Jul-20 04:00N 58°18' W 001°42'0 0.0 230 10.8 13.9
2018-Jul-20 03:00N 58°18' W 001°42'0 0.0 230 10.8 14.0
2018-Jul-20 02:00N 58°18' W 001°42'0 0.0 230 10.8 14.6
2018-Jul-20 01:00N 58°18' W 001°42'0 0.0 230 10.8 15.0
2018-Jul-20 00:00N 58°18' W 001°42'0 0.0 230 10.8 14.9
2018-Jul-19 23:00N 58°18' W 001°42'0 0.0 210 5.4 15.1
2018-Jul-19 22:00N 58°18' W 001°42'0 0.0 190 5.4 15.5
2018-Jul-19 21:00N 58°18' W 001°42'0 0.0 150 10.8 16.9
2018-Jul-19 20:00N 58°18' W 001°42'0 0.0 140 5.4 18.4
2018-Jul-19 19:00N 58°18' W 001°42'0 0.0 160 5.4 18.7
2018-Jul-19 18:00N 58°18' W 001°42'0 0.0 130 10.8 20.1
2018-Jul-19 17:00N 58°18' W 001°42'0 0.0 140 10.8 20.5
2018-Jul-19 16:00N 58°18' W 001°42'0 0.0 130 10.8 22.1
2018-Jul-19 15:00N 58°18' W 001°42'0 0.0 140 10.8 23.1
2018-Jul-19 14:00N 58°18' W 001°42'0 0.0 150 10.8 20.3
2018-Jul-19 13:00N 58°18' W 001°42'0 0.0 180 10.8 20.4
2018-Jul-19 12:00N 58°18' W 001°42'0 0.0 210 10.8 18.9
2018-Jul-19 11:00N 58°18' W 001°42'0 0.0 200 10.8 18.7
2018-Jul-19 10:00N 58°18' W 001°42'0 0.0 210 5.4 17.8
2018-Jul-19 09:00N 58°18' W 001°42'0 0.0 200 10.8 17.5
2018-Jul-19 08:00N 58°18' W 001°42'0 0.0 170 10.8 16.8
2018-Jul-19 07:00N 58°18' W 001°42'0 0.0 150 10.8 16.5
2018-Jul-19 06:00N 58°18' W 001°42'0 0.0 130 10.8 15.6
2018-Jul-19 05:00N 58°18' W 001°42'0 0.0 140 10.8 15.2
2018-Jul-19 04:00N 58°18' W 001°42'0 0.0 130 10.8 15.0
2018-Jul-19 03:00N 58°18' W 001°42'0 0.0 130 10.8 15.0
2018-Jul-19 02:00N 58°18' W 001°42'0 0.0 130 10.8 14.8
2018-Jul-19 01:00N 58°18' W 001°42'0 0.0 110 10.8 14.5
2018-Jul-19 00:00N 58°18' W 001°42'0 0.0 140 10.8 14.2
2018-Jul-18 23:00N 58°18' W 001°42'0 0.0 120 10.8 14.3
2018-Jul-18 22:00N 58°18' W 001°42'0 0.0 110 10.8 14.7
2018-Jul-18 21:00N 58°18' W 001°42'0 0.0 330 10.8 15.2
2018-Jul-18 20:00N 58°18' W 001°42'0 0.0 220 10.8 16.6
2018-Jul-18 19:00N 58°18' W 001°42'0 0.0 210 10.8 19.4
2018-Jul-18 18:00N 58°18' W 001°42'0 0.0 200 10.8 20.0
2018-Jul-18 17:00N 58°18' W 001°42'0 0.0 200 10.8 20.7
2018-Jul-18 16:00N 58°18' W 001°42'0 0.0 300 10.8 18.2
2018-Jul-18 15:00N 58°18' W 001°42'0 0.0 270 10.8 15.9
2018-Jul-18 14:00N 58°18' W 001°42'0 0.0 270 10.8 15.2
2018-Jul-18 13:00N 58°18' W 001°42'0 0.0 230 10.8 15.7
2018-Jul-18 12:00N 58°18' W 001°42'0 0.0 240 10.8 15.6
2018-Jul-18 11:00N 58°18' W 001°42'0 0.0 270 10.8 15.3
2018-Jul-18 10:00N 58°18' W 001°42'0 0.0 230 5.4 14.5
2018-Jul-18 09:00N 58°18' W 001°42'0 0.0 260 10.8 13.8
2018-Jul-18 08:00N 58°18' W 001°42'0 0.0 240 10.8 13.5
2018-Jul-18 07:00N 58°18' W 001°42'0 0.0 220 10.8 13.1
2018-Jul-18 06:00N 58°18' W 001°42'0 0.0 270 10.8 13.1
2018-Jul-18 05:00N 58°18' W 001°42'0 0.0 340 10.8 12.8
2018-Jul-18 04:00N 58°18' W 001°42'0 0.0 350 10.8 12.7
2018-Jul-18 03:00N 58°18' W 001°42'0 0.0 340 10.8 12.8
2018-Jul-18 02:00N 58°18' W 001°42'0 0.0 340 10.8 13.0
2018-Jul-18 01:00N 58°18' W 001°42'0 0.0 300 2.2 13.9
2018-Jul-18 00:00N 58°18' W 001°42'0 0.0 180 10.8 14.1
2018-Jul-17 23:00N 58°18' W 001°42'0 0.0 030 5.4 14.7
2018-Jul-17 22:00N 58°18' W 001°42'0 0.0 020 10.8 15.0
2018-Jul-17 21:00N 58°18' W 001°42'0 0.0 250 10.8 14.7
2018-Jul-17 20:00N 58°18' W 001°42'0 0.0 220 10.8 14.6
2018-Jul-17 19:00N 58°18' W 001°42'0 0.0 250 10.8 15.0
2018-Jul-17 18:00N 58°18' W 001°42'0 0.0 240 10.8 15.1
2018-Jul-17 17:00N 58°18' W 001°42'0 0.0 240 10.8 15.4
2018-Jul-17 16:00N 58°18' W 001°42'0 0.0 230 10.8 16.1
2018-Jul-17 15:00N 58°18' W 001°42'0 0.0 200 10.8 15.6
2018-Jul-17 14:00N 58°18' W 001°42'0 0.0 230 10.8 17.0
2018-Jul-17 13:00N 58°18' W 001°42'0 0.0 230 10.8 16.3
2018-Jul-17 12:00N 58°18' W 001°42'0 0.0 230 10.8 15.2
2018-Jul-17 11:00N 58°18' W 001°42'0 0.0 250 10.8 14.4
2018-Jul-17 10:00N 58°18' W 001°42'0 0.0 240 10.8 14.0
2018-Jul-17 09:00N 58°18' W 001°42'0 0.0 290 5.4 14.1
2018-Jul-17 08:00N 58°18' W 001°42'0 0.0 190 2.2 14.0
2018-Jul-17 07:00N 58°18' W 001°42'0 0.0 260 10.8 14.2
2018-Jul-17 06:00N 58°18' W 001°42'0 0.0 250 10.8 14.0
2018-Jul-17 05:00N 58°18' W 001°42'0 0.0 250 10.8 14.0
2018-Jul-17 04:00N 58°18' W 001°42'0 0.0 250 10.8 13.8
2018-Jul-17 03:00N 58°18' W 001°42'0 0.0 230 5.4 14.1
2018-Jul-17 02:00N 58°18' W 001°42'0 0.0 130 10.8 14.1
2018-Jul-17 01:00N 58°18' W 001°42'0 0.0 200 10.8 14.0
2018-Jul-17 00:00N 58°18' W 001°42'0 0.0 080 10.8 14.0
2018-Jul-16 23:00N 58°18' W 001°42'0 0.0 060 10.8 14.2
2018-Jul-16 22:00N 58°18' W 001°42'0 0.0 020 10.8 14.3
2018-Jul-16 21:00N 58°18' W 001°42'0 0.0 070 5.4 14.2
2018-Jul-16 19:00N 58°18' W 001°42'0 0.0 060 10.8 14.2
2018-Jul-16 18:00N 58°18' W 001°42'0 0.0 050 5.4 14.1
2018-Jul-16 17:00N 58°18' W 001°42'0 0.0
2018-Jul-16 16:00N 58°18' W 001°42'0 0.0
2018-Jul-16 15:00N 58°18' W 001°42'0 0.0
2018-Jul-16 14:00N 58°18' W 001°42'0 0.0
2018-Jul-16 13:00N 58°18' W 001°42'0 0.0
2018-Jul-16 12:00N 58°18' W 001°42'0 0.0
2018-Jul-16 11:00N 58°18' W 001°42'0 0.0
2018-Jul-16 10:00N 58°18' W 001°42'0 0.0
2018-Jul-16 09:00N 58°18' W 001°42'0 0.0
2018-Jul-16 08:00N 58°18' W 001°42'0 0.0 200 2.2 15.4
2018-Jul-16 07:00N 58°18' W 001°42'0 0.0 200 5.4 15.2
2018-Jul-16 06:00N 58°18' W 001°42'0 0.0 190 5.4 15.1
2018-Jul-16 05:00N 58°18' W 001°42'0 0.0 180 5.4 15.0
2018-Jul-16 04:00N 58°18' W 001°42'0 0.0 180 5.4 14.8
2018-Jul-16 03:00N 58°18' W 001°42'0 0.0 180 5.4 15.2
2018-Jul-16 02:00N 58°18' W 001°42'0 0.0 180 5.4 15.3
2018-Jul-16 01:00N 58°18' W 001°42'0 0.0 170 5.4 15.5
2018-Jul-16 00:00N 58°18' W 001°42'0 0.0 160 5.4 15.3
2018-Jul-15 23:00N 58°18' W 001°42'0 0.0 170 10.8 16.2
2018-Jul-15 22:00N 58°18' W 001°42'0 0.0 180 10.8 16.3
2018-Jul-15 21:00N 58°18' W 001°42'0 0.0 200 5.4 15.5
2018-Jul-15 20:00N 58°18' W 001°42'0 0.0 190 5.4 15.6
2018-Jul-15 19:00N 58°18' W 001°42'0 0.0 190 5.4 15.7
2018-Jul-15 18:00N 58°18' W 001°42'0 0.0 220 5.4 17.6
2018-Jul-15 17:00N 58°18' W 001°42'0 0.0 160 5.4 17.2
2018-Jul-15 16:00N 58°18' W 001°42'0 0.0 130 5.4 18.7
2018-Jul-15 15:00N 58°18' W 001°42'0 0.0 110 10.8 21.5
2018-Jul-15 14:00N 58°18' W 001°42'0 0.0 130 10.8 19.0
2018-Jul-15 13:00N 58°18' W 001°42'0 0.0 150 5.4 20.0
2018-Jul-15 12:00N 58°18' W 001°42'0 0.0 140 10.8 16.6
2018-Jul-15 11:00N 58°18' W 001°42'0 0.0 140 10.8 17.2
2018-Jul-15 10:00N 58°18' W 001°42'0 0.0 160 10.8 18.3
2018-Jul-15 09:00N 58°18' W 001°42'0 0.0 170 10.8 17.2
2018-Jul-15 08:00N 58°18' W 001°42'0 0.0 140 10.8 17.7
2018-Jul-15 07:00N 58°18' W 001°42'0 0.0 190 10.8 18.5
2018-Jul-15 06:00N 58°18' W 001°42'0 0.0 180 10.8 17.3
2018-Jul-15 05:00N 58°18' W 001°42'0 0.0 170 10.8 17.0
2018-Jul-15 04:00N 58°18' W 001°42'0 0.0 150 10.8 17.5
2018-Jul-15 03:00N 58°18' W 001°42'0 0.0 140 10.8 16.9
2018-Jul-15 02:00N 58°18' W 001°42'0 0.0 140 10.8 18.0
2018-Jul-15 01:00N 58°18' W 001°42'0 0.0 140 10.8 17.7
2018-Jul-15 00:00N 58°18' W 001°42'0 0.0 150 10.8 17.7
2018-Jul-14 23:00N 58°18' W 001°42'0 0.0 180 10.8 17.2
2018-Jul-14 22:00N 58°18' W 001°42'0 0.0 140 10.8 16.9
2018-Jul-14 21:00N 58°18' W 001°42'0 0.0 160 10.8
2018-Jul-14 20:00N 58°18' W 001°42'0 0.0 5.4 15.2
2018-Jul-14 19:00N 58°18' W 001°42'0 0.0 110 5.4 15.3
2018-Jul-14 18:00N 58°18' W 001°42'0 0.0 130 5.4 15.0
2018-Jul-14 17:00N 58°18' W 001°42'0 0.0 210 5.4 15.3
2018-Jul-14 16:00N 58°18' W 001°42'0 0.0 160 10.8 15.4
2018-Jul-14 15:00N 58°18' W 001°42'0 0.0 140 10.8 16.0
2018-Jul-14 14:00N 58°18' W 001°42'0 0.0 160 10.8 16.0
2018-Jul-14 13:00N 58°18' W 001°42'0 0.0 170 10.8 16.3
2018-Jul-14 12:00N 58°18' W 001°42'0 0.0 170 10.8 15.8
2018-Jul-14 11:00N 58°18' W 001°42'0 0.0 200 10.8 16.6
2018-Jul-14 10:00N 58°18' W 001°42'0 0.0 200 10.8 16.7
2018-Jul-14 09:00N 58°18' W 001°42'0 0.0 220 10.8 16.0
2018-Jul-14 08:00N 58°18' W 001°42'0 0.0 220 10.8 15.5
2018-Jul-14 07:00N 58°18' W 001°42'0 0.0 220 10.8 15.8
2018-Jul-14 06:00N 58°18' W 001°42'0 0.0 240 10.8 14.6
2018-Jul-14 05:00N 58°18' W 001°42'0 0.0 240 10.8 14.7
2018-Jul-14 04:00N 58°18' W 001°42'0 0.0 5.4
2018-Jul-14 03:00N 58°18' W 001°42'0 0.0 230 10.8 14.6
2018-Jul-14 02:00N 58°18' W 001°42'0 0.0 220 5.4 14.1
2018-Jul-14 01:00N 58°18' W 001°42'0 0.0 200 5.4 14.1
2018-Jul-14 00:00N 58°18' W 001°42'0 0.0 190 5.4 14.2
2018-Jul-13 23:00N 58°18' W 001°42'0 0.0 190 5.4 14.4
2018-Jul-13 22:00N 58°18' W 001°42'0 0.0 170 10.8 14.6
2018-Jul-13 21:00N 58°18' W 001°42'0 0.0 170 10.8 14.6
2018-Jul-13 20:00N 58°18' W 001°42'0 0.0 170 10.8 14.7
2018-Jul-13 19:00N 58°18' W 001°42'0 0.0 180 10.8 14.8
2018-Jul-13 18:00N 58°18' W 001°42'0 0.0 170 10.8 14.9
2018-Jul-13 17:00N 58°18' W 001°42'0 0.0 160 10.8 15.0
2018-Jul-13 16:00N 58°18' W 001°42'0 0.0 150 10.8 15.2
2018-Jul-13 15:00N 58°18' W 001°42'0 0.0 160 10.8 15.0
2018-Jul-13 14:00N 58°18' W 001°42'0 0.0 140 10.8 15.2
2018-Jul-13 13:00N 58°18' W 001°42'0 0.0 140 10.8 15.3
2018-Jul-13 12:00N 58°18' W 001°42'0 0.0 140 10.8 15.6
2018-Jul-13 11:00N 58°18' W 001°42'0 0.0 170 10.8 15.6
2018-Jul-13 10:00N 58°18' W 001°42'0 0.0 140 10.8 15.6
2018-Jul-13 09:00N 58°18' W 001°42'0 0.0 160 10.8 15.2
2018-Jul-13 08:00N 58°18' W 001°42'0 0.0 200 10.8 14.8
2018-Jul-13 07:00N 58°18' W 001°42'0 0.0 210 10.8 15.0
2018-Jul-13 06:00N 58°18' W 001°42'0 0.0 220 10.8 15.1
2018-Jul-13 05:00N 58°18' W 001°42'0 0.0 240 10.8 13.6
2018-Jul-13 04:00N 58°18' W 001°42'0 0.0 260 10.8 12.3
2018-Jul-13 03:00N 58°18' W 001°42'0 0.0 270 10.8 12.3
2018-Jul-13 02:00N 58°18' W 001°42'0 0.0 300 10.8 12.6
2018-Jul-13 01:00N 58°18' W 001°42'0 0.0 310 10.8 12.5
2018-Jul-13 00:00N 58°18' W 001°42'0 0.0 280 10.8 12.8
2018-Jul-12 23:00N 58°18' W 001°42'0 0.0 300 10.8 12.9
2018-Jul-12 22:00N 58°18' W 001°42'0 0.0 010 10.8 12.9
2018-Jul-12 21:00N 58°18' W 001°42'0 0.0 310 10.8 13.0
2018-Jul-12 20:00N 58°18' W 001°42'0 0.0 360 10.8 13.1
2018-Jul-12 19:00N 58°18' W 001°42'0 0.0 310 10.8 13.1
2018-Jul-12 18:00N 58°18' W 001°42'0 0.0 340 10.8 13.3
2018-Jul-12 17:00N 58°18' W 001°42'0 0.0 340 10.8 13.3
2018-Jul-12 16:00N 58°18' W 001°42'0 0.0 350 10.8 13.4
2018-Jul-12 15:00N 58°18' W 001°42'0 0.0 320 10.8 13.3
2018-Jul-12 14:00N 58°18' W 001°42'0 0.0 330 10.8 13.2
2018-Jul-12 13:00N 58°18' W 001°42'0 0.0 340 10.8 12.8
2018-Jul-12 12:00N 58°18' W 001°42'0 0.0 350 10.8 12.7
2018-Jul-12 11:00N 58°18' W 001°42'0 0.0 360 10.8 12.7
2018-Jul-12 10:00N 58°18' W 001°42'0 0.0 340 10.8 12.8
2018-Jul-12 09:00N 58°18' W 001°42'   330 10.8 12.7

Dump ship's entire track history